createdAt,value
2018-08-19T00:00:52.956Z,99.90
2018-08-19T00:05:50.523Z,99.90
2018-08-19T00:08:19.488Z,99.90
2018-08-19T00:11:00.131Z,99.90
2018-08-19T00:13:29.201Z,99.90
2018-08-19T00:15:58.339Z,99.90
2018-08-19T00:20:55.972Z,99.90
2018-08-19T00:23:24.956Z,99.90
2018-08-19T00:25:53.959Z,99.90
2018-08-19T00:28:22.872Z,99.90
2018-08-19T00:33:20.423Z,99.90
2018-08-19T00:38:17.862Z,99.90
2018-08-19T00:40:46.862Z,99.90
2018-08-19T00:43:15.778Z,99.90
2018-08-19T00:45:44.774Z,99.90
2018-08-19T00:48:13.716Z,99.90
2018-08-19T00:50:42.829Z,99.90
2018-08-19T00:58:16.538Z,99.90
2018-08-19T01:00:45.511Z,99.90
2018-08-19T01:03:14.717Z,99.90
2018-08-19T01:08:13.837Z,99.90
2018-08-19T01:10:43.141Z,99.90
2018-08-19T01:15:41.683Z,99.90
2018-08-19T01:18:10.671Z,99.90
2018-08-19T01:20:39.731Z,99.90
2018-08-19T01:23:09.439Z,99.90
2018-08-19T01:25:39.508Z,99.90
2018-08-19T01:28:08.410Z,99.90
2018-08-19T01:30:37.406Z,99.90
2018-08-19T01:33:06.357Z,99.90
2018-08-19T01:35:41.404Z,99.90
2018-08-19T01:38:10.306Z,99.90
2018-08-19T01:40:38.416Z,99.90
2018-08-19T01:43:06.665Z,99.90
2018-08-19T01:45:35.030Z,99.90
2018-08-19T01:48:03.084Z,99.90
2018-08-19T01:50:31.171Z,99.90
2018-08-19T01:52:59.211Z,99.90
2018-08-19T01:55:27.375Z,99.90
2018-08-19T02:02:56.010Z,99.90
2018-08-19T02:05:24.563Z,99.90
2018-08-19T02:07:53.896Z,99.90
2018-08-19T02:10:22.853Z,99.90
2018-08-19T02:22:51.914Z,99.90
2018-08-19T02:25:20.065Z,99.90
2018-08-19T02:27:49.437Z,99.90
2018-08-19T02:30:18.409Z,99.90
2018-08-19T02:32:47.331Z,99.90
2018-08-19T02:35:16.310Z,99.90
2018-08-19T02:42:46.525Z,99.90
2018-08-19T02:50:12.561Z,99.90
2018-08-19T02:52:41.448Z,99.90
2018-08-19T02:55:10.491Z,99.90
2018-08-19T02:57:40.626Z,99.90
2018-08-19T03:00:11.101Z,99.90
2018-08-19T03:02:41.394Z,99.90
2018-08-19T03:07:39.550Z,99.90
2018-08-19T03:10:10.565Z,99.90
2018-08-19T03:15:10.744Z,99.90
2018-08-19T03:17:40.228Z,99.90
2018-08-19T03:20:11.828Z,99.90
2018-08-19T03:25:10.044Z,99.90
2018-08-19T03:30:10.466Z,99.90
2018-08-19T03:35:20.425Z,99.90
2018-08-19T03:40:20.219Z,99.90
2018-08-19T03:45:20.352Z,99.90
2018-08-19T03:47:51.436Z,99.90
2018-08-19T03:52:49.115Z,99.90
2018-08-19T03:55:28.472Z,99.90
2018-08-19T04:02:57.426Z,99.90
2018-08-19T04:05:39.547Z,99.90
2018-08-19T04:08:09.990Z,99.90
2018-08-19T04:10:40.327Z,99.90
2018-08-19T04:18:30.067Z,99.90
2018-08-19T04:21:00.585Z,99.90
2018-08-19T04:31:10.591Z,99.90
2018-08-19T04:33:42.539Z,99.90
2018-08-19T04:36:13.061Z,99.90
2018-08-19T04:38:42.151Z,99.90
2018-08-19T04:41:13.479Z,99.90
2018-08-19T04:43:42.718Z,99.90
2018-08-19T04:46:12.643Z,99.90
2018-08-19T04:48:41.589Z,99.90
2018-08-19T04:51:10.509Z,99.90
2018-08-19T04:53:39.440Z,99.90
2018-08-19T04:58:36.917Z,99.90
2018-08-19T05:01:06.045Z,99.90
2018-08-19T05:06:03.426Z,99.90
2018-08-19T05:11:00.972Z,99.90
2018-08-19T05:13:30.076Z,99.90
2018-08-19T05:15:59.374Z,99.90
2018-08-19T05:21:28.393Z,99.90
2018-08-19T05:23:57.241Z,99.90
2018-08-19T05:26:26.230Z,99.90
2018-08-19T05:29:07.060Z,99.90
2018-08-19T05:31:43.273Z,99.90
2018-08-19T05:34:21.499Z,99.90
2018-08-19T05:36:51.105Z,99.90
2018-08-19T05:39:20.106Z,99.90
2018-08-19T05:42:00.577Z,99.90
2018-08-19T05:44:33.748Z,99.90
2018-08-19T05:52:23.559Z,99.90
2018-08-19T05:54:55.863Z,99.90
2018-08-19T05:57:23.928Z,99.90
2018-08-19T05:59:53.181Z,99.90
2018-08-19T06:02:29.909Z,99.90
2018-08-19T06:04:58.025Z,99.90
2018-08-19T06:07:26.987Z,99.90
2018-08-19T06:09:55.949Z,99.90
2018-08-19T06:12:24.894Z,99.90
2018-08-19T06:14:53.764Z,99.90
2018-08-19T06:19:51.149Z,99.90
2018-08-19T06:22:24.076Z,99.90
2018-08-19T06:24:52.957Z,99.90
2018-08-19T06:27:22.075Z,99.90
2018-08-19T06:29:52.398Z,99.90
2018-08-19T06:34:59.829Z,99.90
2018-08-19T06:37:27.850Z,99.90
2018-08-19T06:44:53.781Z,99.90
2018-08-19T06:54:52.796Z,99.90
2018-08-19T06:57:21.780Z,99.90
2018-08-19T06:59:50.766Z,99.90
2018-08-19T07:02:22.237Z,99.90
2018-08-19T07:07:20.468Z,99.90
2018-08-19T07:09:49.503Z,99.90
2018-08-19T07:12:22.758Z,99.90
2018-08-19T07:17:19.082Z,99.90
2018-08-19T07:19:47.236Z,99.90
2018-08-19T07:22:15.887Z,99.90
2018-08-19T07:27:12.594Z,99.90
2018-08-19T07:29:41.672Z,99.90
2018-08-19T07:32:11.863Z,99.90
2018-08-19T07:34:39.971Z,99.90
2018-08-19T07:37:08.951Z,99.90
2018-08-19T07:39:44.211Z,99.90
2018-08-19T07:42:13.495Z,99.90
2018-08-19T07:44:42.485Z,99.90
2018-08-19T07:47:10.554Z,99.90
2018-08-19T07:49:39.479Z,99.90
2018-08-19T07:52:07.468Z,99.90
2018-08-19T07:57:14.002Z,99.90
2018-08-19T08:02:09.665Z,99.90
2018-08-19T08:04:42.608Z,99.90
2018-08-19T08:07:12.523Z,99.90
2018-08-19T08:09:42.112Z,99.90
2018-08-19T08:12:11.348Z,99.90
2018-08-19T08:14:42.291Z,99.90
2018-08-19T08:17:11.300Z,99.90
2018-08-19T08:19:47.536Z,99.90
2018-08-19T08:22:16.738Z,99.90
2018-08-19T08:24:45.009Z,99.90
2018-08-19T08:27:13.237Z,99.90
2018-08-19T08:34:38.611Z,99.90
2018-08-19T08:37:08.194Z,99.90
2018-08-19T08:39:37.928Z,99.90
2018-08-19T08:42:07.404Z,99.90
2018-08-19T08:47:06.262Z,99.90
2018-08-19T08:52:20.311Z,99.90
2018-08-19T08:54:54.683Z,99.90
2018-08-19T08:57:23.789Z,99.90
2018-08-19T08:59:52.407Z,99.90
2018-08-19T09:02:20.636Z,99.90
2018-08-19T09:07:16.972Z,99.90
2018-08-19T09:12:14.617Z,99.90
2018-08-19T09:19:40.385Z,99.90
2018-08-19T09:22:08.814Z,99.90
2018-08-19T09:29:38.336Z,99.90
2018-08-19T09:32:07.247Z,99.90
2018-08-19T09:34:36.174Z,99.90
2018-08-19T09:37:05.118Z,99.90
2018-08-19T09:39:34.104Z,99.90
2018-08-19T09:44:37.253Z,99.90
2018-08-19T09:47:06.620Z,99.90
2018-08-19T09:49:35.634Z,99.90
2018-08-19T09:52:04.928Z,99.90
2018-08-19T09:54:34.533Z,99.90
2018-08-19T09:57:04.337Z,99.90
2018-08-19T09:59:33.228Z,99.90
2018-08-19T10:04:34.754Z,99.90
2018-08-19T10:07:10.376Z,99.90
2018-08-19T10:09:39.344Z,99.90
2018-08-19T10:12:09.768Z,99.90
2018-08-19T10:14:38.700Z,99.90
2018-08-19T10:17:07.776Z,99.90
2018-08-19T10:19:36.761Z,99.90
2018-08-19T10:22:05.831Z,99.90
2018-08-19T10:24:35.395Z,99.90
2018-08-19T10:29:35.281Z,99.90
2018-08-19T10:32:05.347Z,99.90
2018-08-19T10:37:04.889Z,99.90
2018-08-19T10:39:33.872Z,99.90
2018-08-19T10:44:31.772Z,99.90
2018-08-19T10:47:00.730Z,99.90
2018-08-19T10:49:29.625Z,99.90
2018-08-19T10:54:27.155Z,99.90
2018-08-19T10:59:24.701Z,99.90
2018-08-19T11:01:53.706Z,99.60
2018-08-19T11:04:22.600Z,99.90
2018-08-19T11:06:51.612Z,99.30
2018-08-19T11:09:20.528Z,99.00
2018-08-19T11:11:49.482Z,98.00
2018-08-19T11:16:46.875Z,98.20
2018-08-19T11:19:15.905Z,98.10
2018-08-19T11:21:44.886Z,98.10
2018-08-19T11:27:02.046Z,97.80
2018-08-19T11:34:30.939Z,96.60
2018-08-19T11:36:59.977Z,96.30
2018-08-19T11:39:33.966Z,96.80
2018-08-19T11:42:02.945Z,96.00
2018-08-19T11:49:31.292Z,94.40
2018-08-19T11:52:02.473Z,94.70
2018-08-19T11:54:32.250Z,95.20
2018-08-19T11:57:07.889Z,95.30
2018-08-19T11:59:45.153Z,94.10
2018-08-19T12:02:16.657Z,94.70
2018-08-19T12:04:46.127Z,94.90
2018-08-19T12:07:15.042Z,95.30
2018-08-19T12:09:47.084Z,94.90
2018-08-19T12:12:15.929Z,94.10
2018-08-19T12:14:44.998Z,93.30
2018-08-19T12:19:43.838Z,93.50
2018-08-19T12:24:47.798Z,94.30
2018-08-19T12:27:19.044Z,93.70
2018-08-19T12:29:48.059Z,93.60
2018-08-19T12:32:24.118Z,93.50
2018-08-19T12:34:56.274Z,93.50
2018-08-19T12:37:26.543Z,92.50
2018-08-19T12:39:56.077Z,91.80
2018-08-19T12:42:25.613Z,91.80
2018-08-19T12:44:59.738Z,92.30
2018-08-19T12:47:30.450Z,92.60
2018-08-19T12:50:00.898Z,92.90
2018-08-19T12:55:05.447Z,91.80
2018-08-19T12:57:35.037Z,91.40
2018-08-19T13:00:22.459Z,91.90
2018-08-19T13:02:52.304Z,91.40
2018-08-19T13:05:21.787Z,91.20
2018-08-19T13:07:50.873Z,90.70
2018-08-19T13:15:23.480Z,90.40
2018-08-19T13:17:52.753Z,90.40
2018-08-19T13:20:21.739Z,90.10
2018-08-19T13:22:55.751Z,88.90
2018-08-19T13:25:25.204Z,90.10
2018-08-19T13:27:54.193Z,90.60
2018-08-19T13:30:23.094Z,90.00
2018-08-19T13:32:52.680Z,90.00
2018-08-19T13:37:50.814Z,90.00
2018-08-19T13:42:48.335Z,89.90
2018-08-19T13:45:18.414Z,87.60
2018-08-19T13:50:17.217Z,89.10
2018-08-19T13:52:46.204Z,88.90
2018-08-19T13:55:17.156Z,88.10
2018-08-19T13:57:46.071Z,89.10
2018-08-19T14:00:16.766Z,88.20
2018-08-19T14:02:46.204Z,87.60
2018-08-19T14:05:15.223Z,86.00
2018-08-19T14:07:44.263Z,84.60
2018-08-19T14:10:14.409Z,86.20
2018-08-19T14:12:43.295Z,83.80
2018-08-19T14:15:12.291Z,84.00
2018-08-19T14:17:41.166Z,84.00
2018-08-19T14:20:11.765Z,85.00
2018-08-19T14:25:10.793Z,82.90
2018-08-19T14:27:39.910Z,83.30
2018-08-19T14:32:40.671Z,81.30
2018-08-19T14:35:16.224Z,82.00
2018-08-19T14:37:45.155Z,79.40
2018-08-19T14:40:15.691Z,79.00
2018-08-19T14:42:44.807Z,76.80
2018-08-19T14:45:13.827Z,81.10
2018-08-19T14:50:14.011Z,78.00
2018-08-19T14:52:43.275Z,77.70
2018-08-19T14:55:11.610Z,76.80
2018-08-19T14:57:40.583Z,75.20
2018-08-19T15:00:12.625Z,74.40
2018-08-19T15:02:41.644Z,75.30
2018-08-19T15:10:16.962Z,71.80
2018-08-19T15:15:14.458Z,71.80
2018-08-19T15:17:51.378Z,70.60
2018-08-19T15:20:25.606Z,70.90
2018-08-19T15:23:04.328Z,69.40
2018-08-19T15:25:33.242Z,66.80
2018-08-19T15:28:02.365Z,66.60
2018-08-19T15:30:31.317Z,67.30
2018-08-19T15:33:00.546Z,66.20
2018-08-19T15:35:29.247Z,66.10
2018-08-19T15:37:58.189Z,66.00
2018-08-19T15:40:41.756Z,67.60
2018-08-19T15:43:11.925Z,65.80
2018-08-19T15:45:41.443Z,65.60
2018-08-19T15:50:39.013Z,66.70
2018-08-19T15:53:08.816Z,67.00
2018-08-19T15:55:38.374Z,67.10
2018-08-19T15:58:07.416Z,65.80
2018-08-19T16:00:39.842Z,66.50
2018-08-19T16:05:37.969Z,63.40
2018-08-19T16:08:07.298Z,64.00
2018-08-19T16:10:36.302Z,64.10
2018-08-19T16:13:07.798Z,66.20
2018-08-19T16:15:36.865Z,62.60
2018-08-19T16:18:05.774Z,65.30
2018-08-19T16:23:03.271Z,65.00
2018-08-19T16:25:32.337Z,66.90
2018-08-19T16:28:01.294Z,66.80
2018-08-19T16:30:30.344Z,67.60
2018-08-19T16:32:59.447Z,69.00
2018-08-19T16:35:28.529Z,69.20
2018-08-19T16:37:57.400Z,70.60
2018-08-19T16:40:26.301Z,71.80
2018-08-19T16:42:55.178Z,72.90
2018-08-19T16:45:24.150Z,74.50
2018-08-19T16:47:53.017Z,75.40
2018-08-19T16:50:22.133Z,76.50
2018-08-19T16:55:19.467Z,76.80
2018-08-19T16:57:48.350Z,76.90
2018-08-19T17:00:17.418Z,77.50
2018-08-19T17:02:46.353Z,78.80
2018-08-19T17:07:49.400Z,80.00
2018-08-19T17:10:18.271Z,80.90
2018-08-19T17:12:47.194Z,79.60
2018-08-19T17:15:16.229Z,80.20
2018-08-19T17:20:13.693Z,80.80
2018-08-19T17:25:11.272Z,80.50
2018-08-19T17:27:40.153Z,81.50
2018-08-19T17:30:14.442Z,82.80
2018-08-19T17:35:13.984Z,83.40
2018-08-19T17:37:42.963Z,83.90
2018-08-19T17:40:11.931Z,84.50
2018-08-19T17:47:37.915Z,86.30
2018-08-19T17:55:03.961Z,88.80
2018-08-19T17:57:32.864Z,87.30
2018-08-19T18:02:30.261Z,90.10
2018-08-19T18:04:59.878Z,89.70
2018-08-19T18:09:59.055Z,90.10
2018-08-19T18:12:27.938Z,90.20
2018-08-19T18:19:54.008Z,91.00
2018-08-19T18:22:22.934Z,91.30
2018-08-19T18:29:55.456Z,91.20
2018-08-19T18:32:24.433Z,92.10
2018-08-19T18:34:53.410Z,92.40
2018-08-19T18:39:50.900Z,92.80
2018-08-19T18:42:33.984Z,92.80
2018-08-19T18:47:35.971Z,93.50
2018-08-19T18:50:09.047Z,93.80
2018-08-19T18:52:37.960Z,93.80
2018-08-19T18:55:08.217Z,94.20
2018-08-19T18:57:41.304Z,94.30
2018-08-19T19:00:11.574Z,94.50
2018-08-19T19:02:44.632Z,94.80
2018-08-19T19:08:15.281Z,95.40
2018-08-19T19:11:05.773Z,95.50
2018-08-19T19:13:35.621Z,95.80
2018-08-19T19:18:33.073Z,96.20
2018-08-19T19:21:05.969Z,96.30
2018-08-19T19:23:37.180Z,96.60
2018-08-19T19:26:06.904Z,96.70
2018-08-19T19:28:35.901Z,97.20
2018-08-19T19:31:10.247Z,97.20
2018-08-19T19:33:39.165Z,97.50
2018-08-19T19:36:13.468Z,97.70
2018-08-19T19:38:47.939Z,98.00
2018-08-19T19:43:46.468Z,97.20
2018-08-19T19:48:43.880Z,98.50
2018-08-19T19:51:12.785Z,99.00
2018-08-19T19:53:42.810Z,99.10
2018-08-19T19:56:14.640Z,99.30
2018-08-19T20:01:13.786Z,99.70
2018-08-19T20:03:52.211Z,99.90
2018-08-19T20:08:49.787Z,99.90
2018-08-19T20:11:23.870Z,99.90
2018-08-19T20:13:52.840Z,99.90
2018-08-19T20:16:21.771Z,99.90
2018-08-19T20:18:50.710Z,99.90
2018-08-19T20:21:24.926Z,99.90
2018-08-19T20:23:55.334Z,99.90
2018-08-19T20:26:25.053Z,99.90
2018-08-19T20:28:56.142Z,99.90
2018-08-19T20:36:22.252Z,99.90
2018-08-19T20:38:51.127Z,99.90
2018-08-19T20:43:48.828Z,99.90
2018-08-19T20:46:17.804Z,99.90
2018-08-19T20:48:48.107Z,99.90
2018-08-19T20:51:17.117Z,99.90
2018-08-19T21:01:17.640Z,99.90
2018-08-19T21:08:44.112Z,99.90
2018-08-19T21:16:10.126Z,99.90
2018-08-19T21:18:39.035Z,99.90
2018-08-19T21:21:07.993Z,99.90
2018-08-19T21:23:36.882Z,99.90
2018-08-19T21:26:05.919Z,99.90
2018-08-19T21:28:34.820Z,99.90
2018-08-19T21:33:32.412Z,99.90
2018-08-19T21:38:29.951Z,99.90
2018-08-19T21:40:58.898Z,99.90
2018-08-19T21:43:29.940Z,99.90
2018-08-19T21:45:59.821Z,99.90
2018-08-19T21:48:28.671Z,99.90
2018-08-19T21:53:26.109Z,99.90
2018-08-19T22:00:57.455Z,99.90
2018-08-19T22:03:31.626Z,99.90
2018-08-19T22:06:05.722Z,99.90
2018-08-19T22:08:34.759Z,99.90
2018-08-19T22:16:01.732Z,99.90
2018-08-19T22:18:31.487Z,99.90
2018-08-19T22:21:22.752Z,99.90
2018-08-19T22:23:55.184Z,99.90
2018-08-19T22:26:24.154Z,99.90
2018-08-19T22:36:28.434Z,99.90
2018-08-19T22:38:57.675Z,99.90
2018-08-19T22:43:58.107Z,99.90
2018-08-19T22:46:27.652Z,99.90
2018-08-19T22:48:57.365Z,99.90
2018-08-19T22:51:30.561Z,99.90
2018-08-19T22:53:59.537Z,99.90
2018-08-19T23:01:29.796Z,99.90
2018-08-19T23:04:01.327Z,99.90
2018-08-19T23:06:30.897Z,99.90
2018-08-19T23:08:59.953Z,99.90
2018-08-19T23:11:35.020Z,99.90
2018-08-19T23:14:15.372Z,99.90
2018-08-19T23:16:44.362Z,99.90
2018-08-19T23:19:13.233Z,99.90
2018-08-19T23:21:42.149Z,99.90
2018-08-19T23:26:39.565Z,99.90
2018-08-19T23:29:08.520Z,99.90
2018-08-19T23:31:37.405Z,99.90
2018-08-19T23:34:06.608Z,99.90
2018-08-19T23:36:35.448Z,99.90
2018-08-19T23:39:05.381Z,99.90
2018-08-19T23:44:02.792Z,99.90
2018-08-19T23:49:01.222Z,99.90
2018-08-19T23:51:31.141Z,99.90
2018-08-19T23:56:30.206Z,99.90
2018-08-19T23:59:01.797Z,99.90
